sensor_id;sensor_type;location;lat;lon;timestamp;pressure;altitude;pressure_sealevel;temperature;humidity
43804;BME280;29430;52.924;-2.388;2024-03-08T00:04:03;99189.97;;;3.82;99.33
43804;BME280;29430;52.924;-2.388;2024-03-08T00:08:54;99168.03;;;3.78;99.21
43804;BME280;29430;52.924;-2.388;2024-03-08T00:13:47;99166.09;;;3.72;100.00
43804;BME280;29430;52.924;-2.388;2024-03-08T00:18:39;99172.75;;;3.76;100.00
43804;BME280;29430;52.924;-2.388;2024-03-08T00:23:31;99151.88;;;3.71;100.00
43804;BME280;29430;52.924;-2.388;2024-03-08T00:28:24;99158.44;;;3.69;100.00
43804;BME280;29430;52.924;-2.388;2024-03-08T00:33:18;99141.25;;;3.63;100.00
43804;BME280;29430;52.924;-2.388;2024-03-08T00:38:10;99134.78;;;3.57;100.00
43804;BME280;29430;52.924;-2.388;2024-03-08T00:43:02;99127.94;;;3.55;100.00
43804;BME280;29430;52.924;-2.388;2024-03-08T00:47:55;99133.66;;;3.52;100.00
43804;BME280;29430;52.924;-2.388;2024-03-08T00:52:47;99130.34;;;3.50;100.00
43804;BME280;29430;52.924;-2.388;2024-03-08T00:57:38;99130.97;;;3.52;100.00
43804;BME280;29430;52.924;-2.388;2024-03-08T01:02:30;99129.72;;;3.48;100.00
43804;BME280;29430;52.924;-2.388;2024-03-08T01:07:22;99120.81;;;3.47;100.00
43804;BME280;29430;52.924;-2.388;2024-03-08T01:12:13;99121.84;;;3.46;100.00
43804;BME280;29430;52.924;-2.388;2024-03-08T01:17:06;99108.25;;;3.48;100.00
43804;BME280;29430;52.924;-2.388;2024-03-08T01:21:58;99096.06;;;3.45;100.00
43804;BME280;29430;52.924;-2.388;2024-03-08T01:26:50;99091.69;;;3.44;100.00
43804;BME280;29430;52.924;-2.388;2024-03-08T01:31:41;99095.41;;;3.43;100.00
43804;BME280;29430;52.924;-2.388;2024-03-08T01:36:33;99078.28;;;3.44;100.00
43804;BME280;29430;52.924;-2.388;2024-03-08T01:41:25;99083.47;;;3.46;100.00
43804;BME280;29430;52.924;-2.388;2024-03-08T01:46:19;99083.94;;;3.49;100.00
43804;BME280;29430;52.924;-2.388;2024-03-08T01:51:13;99079.03;;;3.53;100.00
43804;BME280;29430;52.924;-2.388;2024-03-08T01:56:06;99066.44;;;3.53;100.00
43804;BME280;29430;52.924;-2.388;2024-03-08T02:00:59;99053.03;;;3.53;100.00
43804;BME280;29430;52.924;-2.388;2024-03-08T02:05:51;99047.97;;;3.58;100.00
43804;BME280;29430;52.924;-2.388;2024-03-08T02:10:46;99052.47;;;3.58;100.00
43804;BME280;29430;52.924;-2.388;2024-03-08T02:20:51;99034.44;;;3.67;100.00
43804;BME280;29430;52.924;-2.388;2024-03-08T02:25:43;99030.34;;;3.71;100.00
43804;BME280;29430;52.924;-2.388;2024-03-08T02:30:34;99019.88;;;3.76;100.00
43804;BME280;29430;52.924;-2.388;2024-03-08T02:35:27;99016.00;;;3.79;100.00
43804;BME280;29430;52.924;-2.388;2024-03-08T02:40:19;99016.06;;;3.85;100.00
43804;BME280;29430;52.924;-2.388;2024-03-08T02:45:11;99015.66;;;3.88;100.00
43804;BME280;29430;52.924;-2.388;2024-03-08T02:50:03;98982.28;;;3.91;100.00
43804;BME280;29430;52.924;-2.388;2024-03-08T02:54:55;98973.84;;;3.94;100.00
43804;BME280;29430;52.924;-2.388;2024-03-08T02:59:46;98974.06;;;3.99;100.00
43804;BME280;29430;52.924;-2.388;2024-03-08T03:04:41;98953.44;;;4.00;100.00
43804;BME280;29430;52.924;-2.388;2024-03-08T03:09:33;98957.59;;;4.02;100.00
43804;BME280;29430;52.924;-2.388;2024-03-08T03:14:25;98945.00;;;4.03;100.00
43804;BME280;29430;52.924;-2.388;2024-03-08T03:19:18;98951.63;;;4.07;100.00
43804;BME280;29430;52.924;-2.388;2024-03-08T03:24:10;98935.78;;;4.12;100.00
43804;BME280;29430;52.924;-2.388;2024-03-08T03:29:02;98930.22;;;4.13;100.00
43804;BME280;29430;52.924;-2.388;2024-03-08T03:33:54;98931.50;;;4.18;100.00
43804;BME280;29430;52.924;-2.388;2024-03-08T03:38:52;98920.34;;;4.21;100.00
43804;BME280;29430;52.924;-2.388;2024-03-08T03:43:55;98923.47;;;4.24;100.00
43804;BME280;29430;52.924;-2.388;2024-03-08T03:48:47;98914.78;;;4.22;100.00
43804;BME280;29430;52.924;-2.388;2024-03-08T03:53:39;98904.28;;;4.27;100.00
43804;BME280;29430;52.924;-2.388;2024-03-08T03:58:30;98882.63;;;4.29;100.00
43804;BME280;29430;52.924;-2.388;2024-03-08T04:03:22;98894.63;;;4.33;100.00
43804;BME280;29430;52.924;-2.388;2024-03-08T04:08:14;98891.13;;;4.33;100.00
43804;BME280;29430;52.924;-2.388;2024-03-08T04:13:06;98878.94;;;4.37;100.00
43804;BME280;29430;52.924;-2.388;2024-03-08T04:17:57;98874.63;;;4.36;100.00
43804;BME280;29430;52.924;-2.388;2024-03-08T04:22:52;98868.19;;;4.37;100.00
43804;BME280;29430;52.924;-2.388;2024-03-08T04:27:44;98853.97;;;4.36;100.00
43804;BME280;29430;52.924;-2.388;2024-03-08T04:32:36;98853.16;;;4.36;100.00
43804;BME280;29430;52.924;-2.388;2024-03-08T04:37:28;98851.91;;;4.38;100.00
43804;BME280;29430;52.924;-2.388;2024-03-08T04:42:21;98853.56;;;4.39;100.00
43804;BME280;29430;52.924;-2.388;2024-03-08T04:47:13;98842.81;;;4.39;100.00
43804;BME280;29430;52.924;-2.388;2024-03-08T04:52:05;98846.97;;;4.42;100.00
43804;BME280;29430;52.924;-2.388;2024-03-08T04:56:58;98844.28;;;4.42;100.00
43804;BME280;29430;52.924;-2.388;2024-03-08T05:01:57;98850.47;;;4.42;100.00
43804;BME280;29430;52.924;-2.388;2024-03-08T05:06:49;98845.50;;;4.39;100.00
43804;BME280;29430;52.924;-2.388;2024-03-08T05:11:44;98847.38;;;4.39;100.00
43804;BME280;29430;52.924;-2.388;2024-03-08T05:16:36;98837.84;;;4.36;100.00
43804;BME280;29430;52.924;-2.388;2024-03-08T05:21:28;98838.66;;;4.37;100.00
43804;BME280;29430;52.924;-2.388;2024-03-08T05:26:20;98817.19;;;4.37;100.00
43804;BME280;29430;52.924;-2.388;2024-03-08T05:31:20;98824.22;;;4.38;100.00
43804;BME280;29430;52.924;-2.388;2024-03-08T05:36:14;98808.53;;;4.35;100.00
43804;BME280;29430;52.924;-2.388;2024-03-08T05:41:07;98806.03;;;4.33;100.00
43804;BME280;29430;52.924;-2.388;2024-03-08T05:45:59;98807.72;;;4.34;100.00
43804;BME280;29430;52.924;-2.388;2024-03-08T05:50:51;98815.75;;;4.34;100.00
43804;BME280;29430;52.924;-2.388;2024-03-08T05:55:42;98791.41;;;4.36;100.00
43804;BME280;29430;52.924;-2.388;2024-03-08T06:00:35;98780.88;;;4.34;100.00
43804;BME280;29430;52.924;-2.388;2024-03-08T06:05:27;98771.34;;;4.32;100.00
43804;BME280;29430;52.924;-2.388;2024-03-08T06:10:19;98767.84;;;4.31;100.00
43804;BME280;29430;52.924;-2.388;2024-03-08T06:15:11;98757.91;;;4.32;100.00
43804;BME280;29430;52.924;-2.388;2024-03-08T06:20:07;98767.63;;;4.33;100.00
43804;BME280;29430;52.924;-2.388;2024-03-08T06:25:02;98749.25;;;4.29;100.00
43804;BME280;29430;52.924;-2.388;2024-03-08T06:29:54;98746.56;;;4.29;100.00
43804;BME280;29430;52.924;-2.388;2024-03-08T06:34:45;98767.41;;;4.27;100.00
43804;BME280;29430;52.924;-2.388;2024-03-08T06:39:37;98748.00;;;4.25;100.00
43804;BME280;29430;52.924;-2.388;2024-03-08T06:44:29;98758.94;;;4.24;100.00
43804;BME280;29430;52.924;-2.388;2024-03-08T06:49:20;98747.78;;;4.20;100.00
43804;BME280;29430;52.924;-2.388;2024-03-08T06:54:12;98744.03;;;4.21;100.00
43804;BME280;29430;52.924;-2.388;2024-03-08T06:59:04;98736.84;;;4.22;100.00
43804;BME280;29430;52.924;-2.388;2024-03-08T07:03:56;98716.38;;;4.21;100.00
43804;BME280;29430;52.924;-2.388;2024-03-08T07:08:48;98734.56;;;4.25;100.00
43804;BME280;29430;52.924;-2.388;2024-03-08T07:13:40;98728.38;;;4.25;100.00
43804;BME280;29430;52.924;-2.388;2024-03-08T07:18:35;98728.19;;;4.26;100.00
43804;BME280;29430;52.924;-2.388;2024-03-08T07:23:31;98727.13;;;4.27;100.00
43804;BME280;29430;52.924;-2.388;2024-03-08T07:28:44;98743.25;;;4.27;100.00
43804;BME280;29430;52.924;-2.388;2024-03-08T07:33:36;98709.81;;;4.30;100.00
43804;BME280;29430;52.924;-2.388;2024-03-08T07:38:29;98726.97;;;4.36;100.00
43804;BME280;29430;52.924;-2.388;2024-03-08T07:43:21;98704.25;;;4.38;100.00
43804;BME280;29430;52.924;-2.388;2024-03-08T07:48:13;98703.03;;;4.41;100.00
43804;BME280;29430;52.924;-2.388;2024-03-08T07:53:08;98694.97;;;4.47;100.00
43804;BME280;29430;52.924;-2.388;2024-03-08T07:58:03;98713.78;;;4.54;100.00
43804;BME280;29430;52.924;-2.388;2024-03-08T08:02:55;98716.06;;;4.57;100.00
43804;BME280;29430;52.924;-2.388;2024-03-08T08:07:47;98698.91;;;4.58;100.00
43804;BME280;29430;52.924;-2.388;2024-03-08T08:12:42;98707.22;;;4.63;100.00
43804;BME280;29430;52.924;-2.388;2024-03-08T08:17:34;98685.50;;;4.65;100.00
43804;BME280;29430;52.924;-2.388;2024-03-08T08:22:26;98683.44;;;4.67;100.00
43804;BME280;29430;52.924;-2.388;2024-03-08T08:27:18;98695.00;;;4.68;100.00
43804;BME280;29430;52.924;-2.388;2024-03-08T08:32:10;98657.63;;;4.73;100.00
43804;BME280;29430;52.924;-2.388;2024-03-08T08:37:02;98682.81;;;4.78;100.00
43804;BME280;29430;52.924;-2.388;2024-03-08T08:41:53;98673.13;;;4.77;100.00
43804;BME280;29430;52.924;-2.388;2024-03-08T08:46:47;98671.47;;;4.83;100.00
43804;BME280;29430;52.924;-2.388;2024-03-08T08:51:39;98658.25;;;4.88;100.00
43804;BME280;29430;52.924;-2.388;2024-03-08T08:56:30;98661.13;;;4.93;100.00
43804;BME280;29430;52.924;-2.388;2024-03-08T09:01:22;98651.63;;;4.97;100.00
43804;BME280;29430;52.924;-2.388;2024-03-08T09:06:14;98669.41;;;5.05;100.00
43804;BME280;29430;52.924;-2.388;2024-03-08T09:11:06;98673.94;;;5.11;100.00
43804;BME280;29430;52.924;-2.388;2024-03-08T09:15:58;98637.03;;;5.45;100.00
43804;BME280;29430;52.924;-2.388;2024-03-08T09:20:50;98634.22;;;5.85;100.00
43804;BME280;29430;52.924;-2.388;2024-03-08T09:25:42;98653.63;;;6.01;100.00
43804;BME280;29430;52.924;-2.388;2024-03-08T09:30:38;98620.31;;;6.02;100.00
43804;BME280;29430;52.924;-2.388;2024-03-08T09:35:32;98619.38;;;6.21;100.00
43804;BME280;29430;52.924;-2.388;2024-03-08T09:40:24;98605.56;;;6.43;98.54
43804;BME280;29430;52.924;-2.388;2024-03-08T09:45:17;98608.53;;;6.60;95.75
43804;BME280;29430;52.924;-2.388;2024-03-08T09:50:11;98595.22;;;6.65;94.71
43804;BME280;29430;52.924;-2.388;2024-03-08T09:55:06;98603.03;;;6.73;93.77
43804;BME280;29430;52.924;-2.388;2024-03-08T09:59:58;98581.50;;;6.92;96.18
43804;BME280;29430;52.924;-2.388;2024-03-08T10:04:51;98572.53;;;7.16;91.22
43804;BME280;29430;52.924;-2.388;2024-03-08T10:09:45;98582.81;;;7.26;91.35
43804;BME280;29430;52.924;-2.388;2024-03-08T10:14:42;98597.34;;;7.07;90.68
43804;BME280;29430;52.924;-2.388;2024-03-08T10:19:35;98569.38;;;7.01;91.66
43804;BME280;29430;52.924;-2.388;2024-03-08T10:24:30;98564.44;;;6.98;91.58
43804;BME280;29430;52.924;-2.388;2024-03-08T10:29:22;98560.09;;;6.97;92.99
43804;BME280;29430;52.924;-2.388;2024-03-08T10:34:16;98551.63;;;6.93;91.83
43804;BME280;29430;52.924;-2.388;2024-03-08T10:39:21;98540.63;;;6.95;91.74
43804;BME280;29430;52.924;-2.388;2024-03-08T10:44:18;98535.63;;;6.98;91.08
43804;BME280;29430;52.924;-2.388;2024-03-08T10:49:17;98566.91;;;6.99;89.15
43804;BME280;29430;52.924;-2.388;2024-03-08T10:54:14;98516.81;;;7.10;88.89
43804;BME280;29430;52.924;-2.388;2024-03-08T10:59:08;98537.94;;;7.13;87.38
43804;BME280;29430;52.924;-2.388;2024-03-08T11:04:04;98542.59;;;6.88;87.64
43804;BME280;29430;52.924;-2.388;2024-03-08T11:08:57;98499.22;;;6.71;87.90
43804;BME280;29430;52.924;-2.388;2024-03-08T11:13:50;98498.81;;;6.67;88.57
43804;BME280;29430;52.924;-2.388;2024-03-08T11:18:43;98503.28;;;6.80;86.84
43804;BME280;29430;52.924;-2.388;2024-03-08T11:23:35;98494.03;;;6.69;86.98
43804;BME280;29430;52.924;-2.388;2024-03-08T11:28:27;98488.94;;;6.61;88.04
43804;BME280;29430;52.924;-2.388;2024-03-08T11:33:18;98517.16;;;6.58;88.14
43804;BME280;29430;52.924;-2.388;2024-03-08T11:38:10;98476.06;;;6.63;87.83
43804;BME280;29430;52.924;-2.388;2024-03-08T11:43:02;98470.03;;;6.68;85.93
43804;BME280;29430;52.924;-2.388;2024-03-08T11:47:59;98472.19;;;6.77;85.41
43804;BME280;29430;52.924;-2.388;2024-03-08T11:52:51;98464.63;;;6.86;84.43
43804;BME280;29430;52.924;-2.388;2024-03-08T11:57:43;98464.09;;;6.96;84.34
43804;BME280;29430;52.924;-2.388;2024-03-08T12:02:35;98456.78;;;7.03;84.38
43804;BME280;29430;52.924;-2.388;2024-03-08T12:07:32;98449.03;;;7.07;84.66
43804;BME280;29430;52.924;-2.388;2024-03-08T12:12:24;98434.31;;;7.09;83.50
43804;BME280;29430;52.924;-2.388;2024-03-08T12:17:16;98442.84;;;7.06;83.01
43804;BME280;29430;52.924;-2.388;2024-03-08T12:22:08;98433.69;;;7.07;84.06
43804;BME280;29430;52.924;-2.388;2024-03-08T12:27:17;98423.06;;;7.12;83.34
43804;BME280;29430;52.924;-2.388;2024-03-08T12:32:09;98408.22;;;7.22;82.90
43804;BME280;29430;52.924;-2.388;2024-03-08T12:37:03;98404.81;;;7.26;81.60
43804;BME280;29430;52.924;-2.388;2024-03-08T12:41:58;98396.63;;;7.33;81.48
43804;BME280;29430;52.924;-2.388;2024-03-08T12:46:51;98385.94;;;7.26;81.67
43804;BME280;29430;52.924;-2.388;2024-03-08T12:51:44;98418.78;;;7.23;80.95
43804;BME280;29430;52.924;-2.388;2024-03-08T12:56:36;98375.47;;;7.18;81.78
43804;BME280;29430;52.924;-2.388;2024-03-08T13:01:31;98375.84;;;7.22;82.48
43804;BME280;29430;52.924;-2.388;2024-03-08T13:06:24;98359.56;;;7.28;81.81
43804;BME280;29430;52.924;-2.388;2024-03-08T13:11:16;98354.53;;;7.32;80.23
43804;BME280;29430;52.924;-2.388;2024-03-08T13:16:08;98345.03;;;7.41;79.86
43804;BME280;29430;52.924;-2.388;2024-03-08T13:21:00;98339.91;;;7.51;79.65
43804;BME280;29430;52.924;-2.388;2024-03-08T13:25:58;98336.75;;;7.55;81.07
43804;BME280;29430;52.924;-2.388;2024-03-08T13:30:50;98340.41;;;7.60;80.24
43804;BME280;29430;52.924;-2.388;2024-03-08T13:35:47;98316.13;;;7.60;80.18
43804;BME280;29430;52.924;-2.388;2024-03-08T13:40:42;98313.41;;;7.72;81.20
43804;BME280;29430;52.924;-2.388;2024-03-08T13:45:35;98313.78;;;7.76;79.34
43804;BME280;29430;52.924;-2.388;2024-03-08T13:50:29;98308.16;;;7.65;78.85
43804;BME280;29430;52.924;-2.388;2024-03-08T13:55:22;98300.97;;;7.59;79.12
43804;BME280;29430;52.924;-2.388;2024-03-08T14:00:14;98300.88;;;7.54;79.81
43804;BME280;29430;52.924;-2.388;2024-03-08T14:05:07;98293.72;;;7.48;80.20
43804;BME280;29430;52.924;-2.388;2024-03-08T14:10:00;98279.03;;;7.44;78.95
43804;BME280;29430;52.924;-2.388;2024-03-08T14:14:53;98280.69;;;7.45;80.09
43804;BME280;29430;52.924;-2.388;2024-03-08T14:19:44;98260.25;;;7.49;81.01
43804;BME280;29430;52.924;-2.388;2024-03-08T14:24:36;98264.25;;;7.46;79.67
43804;BME280;29430;52.924;-2.388;2024-03-08T14:29:29;98256.16;;;7.34;78.42
43804;BME280;29430;52.924;-2.388;2024-03-08T14:34:26;98247.00;;;7.35;79.27
43804;BME280;29430;52.924;-2.388;2024-03-08T14:39:22;98240.78;;;7.35;79.18
43804;BME280;29430;52.924;-2.388;2024-03-08T14:44:17;98252.03;;;7.32;78.51
43804;BME280;29430;52.924;-2.388;2024-03-08T14:49:10;98222.84;;;7.29;77.29
43804;BME280;29430;52.924;-2.388;2024-03-08T14:54:02;98220.25;;;7.22;77.08
43804;BME280;29430;52.924;-2.388;2024-03-08T14:58:57;98218.50;;;7.16;77.63
43804;BME280;29430;52.924;-2.388;2024-03-08T15:03:51;98215.31;;;7.07;79.51
43804;BME280;29430;52.924;-2.388;2024-03-08T15:08:43;98200.19;;;7.06;79.43
43804;BME280;29430;52.924;-2.388;2024-03-08T15:13:34;98200.19;;;7.06;80.03
43804;BME280;29430;52.924;-2.388;2024-03-08T15:18:34;98198.09;;;7.08;80.46
43804;BME280;29430;52.924;-2.388;2024-03-08T15:23:27;98189.41;;;7.06;80.94
43804;BME280;29430;52.924;-2.388;2024-03-08T15:28:19;98188.69;;;6.99;82.05
43804;BME280;29430;52.924;-2.388;2024-03-08T15:33:18;98164.44;;;6.99;83.42
43804;BME280;29430;52.924;-2.388;2024-03-08T15:38:16;98170.06;;;6.97;83.38
43804;BME280;29430;52.924;-2.388;2024-03-08T15:43:10;98160.56;;;6.95;83.00
43804;BME280;29430;52.924;-2.388;2024-03-08T15:48:02;98157.84;;;6.95;83.61
43804;BME280;29430;52.924;-2.388;2024-03-08T15:52:57;98152.13;;;6.91;83.98
43804;BME280;29430;52.924;-2.388;2024-03-08T15:57:51;98144.97;;;6.85;84.93
43804;BME280;29430;52.924;-2.388;2024-03-08T16:02:42;98153.63;;;6.87;85.42
43804;BME280;29430;52.924;-2.388;2024-03-08T16:07:34;98135.84;;;6.86;84.91
43804;BME280;29430;52.924;-2.388;2024-03-08T16:12:26;98127.16;;;6.84;85.12
43804;BME280;29430;52.924;-2.388;2024-03-08T16:17:20;98124.09;;;6.80;85.87
43804;BME280;29430;52.924;-2.388;2024-03-08T16:22:12;98128.06;;;6.78;85.79
43804;BME280;29430;52.924;-2.388;2024-03-08T16:27:03;98128.78;;;6.73;86.39
43804;BME280;29430;52.924;-2.388;2024-03-08T16:31:56;98118.69;;;6.69;86.45
43804;BME280;29430;52.924;-2.388;2024-03-08T16:36:50;98115.66;;;6.65;86.97
43804;BME280;29430;52.924;-2.388;2024-03-08T16:41:43;98114.00;;;6.64;86.47
43804;BME280;29430;52.924;-2.388;2024-03-08T16:46:35;98112.00;;;6.59;87.44
43804;BME280;29430;52.924;-2.388;2024-03-08T16:51:32;98117.03;;;6.56;88.58
43804;BME280;29430;52.924;-2.388;2024-03-08T16:56:23;98094.31;;;6.52;88.55
43804;BME280;29430;52.924;-2.388;2024-03-08T17:01:16;98100.75;;;6.51;89.12
43804;BME280;29430;52.924;-2.388;2024-03-08T17:06:07;98093.00;;;6.42;89.37
43804;BME280;29430;52.924;-2.388;2024-03-08T17:11:00;98091.38;;;6.41;89.61
43804;BME280;29430;52.924;-2.388;2024-03-08T17:15:52;98088.53;;;6.36;89.66
43804;BME280;29430;52.924;-2.388;2024-03-08T17:20:44;98077.19;;;6.34;89.43
43804;BME280;29430;52.924;-2.388;2024-03-08T17:25:36;98103.16;;;6.28;89.30
43804;BME280;29430;52.924;-2.388;2024-03-08T17:30:31;98089.34;;;6.25;88.45
43804;BME280;29430;52.924;-2.388;2024-03-08T17:35:28;98082.19;;;6.19;87.86
43804;BME280;29430;52.924;-2.388;2024-03-08T17:40:21;98091.97;;;6.13;87.81
43804;BME280;29430;52.924;-2.388;2024-03-08T17:45:13;98078.28;;;6.03;87.99
43804;BME280;29430;52.924;-2.388;2024-03-08T17:50:07;98081.19;;;6.01;87.68
43804;BME280;29430;52.924;-2.388;2024-03-08T17:55:02;98077.16;;;5.92;87.57
43804;BME280;29430;52.924;-2.388;2024-03-08T17:59:55;98068.13;;;5.86;88.16
43804;BME280;29430;52.924;-2.388;2024-03-08T18:04:47;98064.91;;;5.78;87.00
43804;BME280;29430;52.924;-2.388;2024-03-08T18:09:40;98050.13;;;5.68;88.36
43804;BME280;29430;52.924;-2.388;2024-03-08T18:14:31;98053.16;;;5.60;87.84
43804;BME280;29430;52.924;-2.388;2024-03-08T18:19:23;98055.53;;;5.50;88.14
43804;BME280;29430;52.924;-2.388;2024-03-08T18:24:15;98028.38;;;5.40;88.49
43804;BME280;29430;52.924;-2.388;2024-03-08T18:29:09;98044.22;;;5.29;89.13
43804;BME280;29430;52.924;-2.388;2024-03-08T18:34:01;98065.81;;;5.23;89.80
43804;BME280;29430;52.924;-2.388;2024-03-08T18:38:54;98052.72;;;5.08;89.88
43804;BME280;29430;52.924;-2.388;2024-03-08T18:43:45;98058.19;;;5.01;90.67
43804;BME280;29430;52.924;-2.388;2024-03-08T18:48:37;98045.88;;;4.93;91.46
43804;BME280;29430;52.924;-2.388;2024-03-08T18:53:30;98011.47;;;4.83;91.98
43804;BME280;29430;52.924;-2.388;2024-03-08T18:58:22;98050.19;;;4.76;92.86
43804;BME280;29430;52.924;-2.388;2024-03-08T19:03:25;98041.34;;;4.69;93.83
43804;BME280;29430;52.924;-2.388;2024-03-08T19:08:18;98042.69;;;4.59;94.13
43804;BME280;29430;52.924;-2.388;2024-03-08T19:13:11;98056.53;;;4.56;95.18
43804;BME280;29430;52.924;-2.388;2024-03-08T19:18:06;98052.50;;;4.47;95.68
43804;BME280;29430;52.924;-2.388;2024-03-08T19:23:03;98060.19;;;4.43;96.03
43804;BME280;29430;52.924;-2.388;2024-03-08T19:27:58;98058.97;;;4.39;96.39
43804;BME280;29430;52.924;-2.388;2024-03-08T19:32:51;98043.13;;;4.31;96.59
43804;BME280;29430;52.924;-2.388;2024-03-08T19:37:44;98042.72;;;4.27;97.24
43804;BME280;29430;52.924;-2.388;2024-03-08T19:42:35;98040.91;;;4.21;97.74
43804;BME280;29430;52.924;-2.388;2024-03-08T19:47:27;98048.16;;;4.21;98.25
43804;BME280;29430;52.924;-2.388;2024-03-08T19:52:20;98032.50;;;4.18;98.45
43804;BME280;29430;52.924;-2.388;2024-03-08T19:57:13;98028.16;;;4.17;98.82
43804;BME280;29430;52.924;-2.388;2024-03-08T20:02:05;97997.63;;;4.18;99.09
43804;BME280;29430;52.924;-2.388;2024-03-08T20:06:57;98015.16;;;4.20;98.96
43804;BME280;29430;52.924;-2.388;2024-03-08T20:11:49;98032.66;;;4.23;98.75
43804;BME280;29430;52.924;-2.388;2024-03-08T20:16:41;97987.25;;;4.21;98.43
43804;BME280;29430;52.924;-2.388;2024-03-08T20:21:34;97990.78;;;4.22;97.15
43804;BME280;29430;52.924;-2.388;2024-03-08T20:26:26;98002.09;;;4.24;96.31
43804;BME280;29430;52.924;-2.388;2024-03-08T20:31:17;97991.38;;;4.24;95.78
43804;BME280;29430;52.924;-2.388;2024-03-08T20:36:09;97995.50;;;4.26;93.47
43804;BME280;29430;52.924;-2.388;2024-03-08T20:41:03;97988.63;;;4.30;93.22
43804;BME280;29430;52.924;-2.388;2024-03-08T20:45:59;97999.97;;;4.33;92.69
43804;BME280;29430;52.924;-2.388;2024-03-08T20:50:56;97980.13;;;4.34;92.97
43804;BME280;29430;52.924;-2.388;2024-03-08T20:55:47;98012.34;;;4.34;93.19
43804;BME280;29430;52.924;-2.388;2024-03-08T21:00:41;97979.09;;;4.35;93.29
43804;BME280;29430;52.924;-2.388;2024-03-08T21:05:35;97990.88;;;4.34;93.57
43804;BME280;29430;52.924;-2.388;2024-03-08T21:10:27;97984.69;;;4.33;93.94
43804;BME280;29430;52.924;-2.388;2024-03-08T21:15:22;97978.06;;;4.36;94.55
43804;BME280;29430;52.924;-2.388;2024-03-08T21:20:14;97982.38;;;4.37;95.20
43804;BME280;29430;52.924;-2.388;2024-03-08T21:25:10;97955.53;;;4.37;95.79
43804;BME280;29430;52.924;-2.388;2024-03-08T21:30:02;97972.25;;;4.39;95.94
43804;BME280;29430;52.924;-2.388;2024-03-08T21:34:53;97950.34;;;4.42;96.91
43804;BME280;29430;52.924;-2.388;2024-03-08T21:39:47;97957.31;;;4.43;97.86
43804;BME280;29430;52.924;-2.388;2024-03-08T21:44:38;97945.34;;;4.45;98.72
43804;BME280;29430;52.924;-2.388;2024-03-08T21:49:30;97910.66;;;4.44;99.24
43804;BME280;29430;52.924;-2.388;2024-03-08T21:54:23;97936.47;;;4.45;99.95
43804;BME280;29430;52.924;-2.388;2024-03-08T21:59:14;97916.03;;;4.44;100.00
43804;BME280;29430;52.924;-2.388;2024-03-08T22:04:08;97915.81;;;4.45;100.00
43804;BME280;29430;52.924;-2.388;2024-03-08T22:09:00;97919.69;;;4.50;100.00
43804;BME280;29430;52.924;-2.388;2024-03-08T22:13:52;97911.03;;;4.47;100.00
43804;BME280;29430;52.924;-2.388;2024-03-08T22:18:43;97902.06;;;4.54;100.00
43804;BME280;29430;52.924;-2.388;2024-03-08T22:23:36;97904.75;;;4.54;100.00
43804;BME280;29430;52.924;-2.388;2024-03-08T22:28:29;97890.53;;;4.53;100.00
43804;BME280;29430;52.924;-2.388;2024-03-08T22:33:22;97894.25;;;4.52;100.00
43804;BME280;29430;52.924;-2.388;2024-03-08T22:38:16;97891.13;;;4.55;100.00
43804;BME280;29430;52.924;-2.388;2024-03-08T22:43:09;97853.53;;;4.55;100.00
43804;BME280;29430;52.924;-2.388;2024-03-08T22:48:02;97854.72;;;4.59;100.00
43804;BME280;29430;52.924;-2.388;2024-03-08T22:52:55;97845.63;;;4.60;100.00
43804;BME280;29430;52.924;-2.388;2024-03-08T22:57:47;97832.22;;;4.60;100.00
43804;BME280;29430;52.924;-2.388;2024-03-08T23:02:43;97835.94;;;4.59;100.00
43804;BME280;29430;52.924;-2.388;2024-03-08T23:07:35;97833.94;;;4.55;100.00
43804;BME280;29430;52.924;-2.388;2024-03-08T23:12:26;97824.22;;;4.54;100.00
43804;BME280;29430;52.924;-2.388;2024-03-08T23:17:19;97814.16;;;4.49;100.00
43804;BME280;29430;52.924;-2.388;2024-03-08T23:22:10;97819.53;;;4.49;100.00
43804;BME280;29430;52.924;-2.388;2024-03-08T23:27:03;97825.75;;;4.50;100.00
43804;BME280;29430;52.924;-2.388;2024-03-08T23:31:55;97810.66;;;4.48;100.00
43804;BME280;29430;52.924;-2.388;2024-03-08T23:36:47;97806.94;;;4.50;100.00
43804;BME280;29430;52.924;-2.388;2024-03-08T23:41:40;97810.56;;;4.55;100.00
43804;BME280;29430;52.924;-2.388;2024-03-08T23:46:34;97799.38;;;4.58;100.00
43804;BME280;29430;52.924;-2.388;2024-03-08T23:51:32;97789.47;;;4.59;100.00
43804;BME280;29430;52.924;-2.388;2024-03-08T23:56:25;97804.31;;;4.61;100.00
